Svartfoss — V2PR3 — position and weather

sailwx.info

Track history (hours):
 
Tides and Currents Weather Stations Pressure Air Temp Water Temp Dewpoint Dewpoint Depression Visibility Wind Speed Wind Dir Waves Ship Positions

Svartfoss

Last reported at 2016-Aug-24 20:31 UTC. Time now 2016-Aug-26 01:34 UTC.
Position N 69°21' E 018°05'.

Length 80 m; draft 5.6 m.

Type: Cargo ship. MMSI: 304882000.

Date/timePositionNaut miles runAvg speedWind from/ knotsBaromVisibWave heightAir tempDewpointWater temp
2016-Aug-24 20:31N 69°21' E 018°05'8 7.9
2016-Aug-24 19:34N 69°14' E 017°58'0 0.0
2016-Aug-24 18:33N 69°14' E 017°58'0 0.0
2016-Aug-24 17:33N 69°14' E 017°58'10 9.9
2016-Aug-24 16:33N 69°07' E 017°38'268 8.6
2016-Aug-23 09:33N 65°14' E 011°55'1514.8
2016-Aug-23 08:33N 65°01' E 011°41'1413.9
2016-Aug-23 07:33N 64°52' E 011°16'1 0.9
2016-Aug-23 06:33N 64°52' E 011°14'0 0.0
2016-Aug-23 05:33N 64°52' E 011°14'0 0.0
2016-Aug-23 04:33N 64°52' E 011°14'1 1.2
2016-Aug-23 03:33N 64°51' E 011°13'5914.2
2016-Aug-22 23:23N 64°03' E 009°50'1113.5
2016-Aug-22 22:33N 63°53' E 009°43'9 9.3
2016-Aug-22 21:33N 63°44' E 009°36'0 0.0
2016-Aug-22 20:33N 63°44' E 009°36'4 4.5
2016-Aug-22 19:34N 63°40' E 009°29'1413.6
2016-Aug-22 18:33N 63°30' E 009°07'  
2016-Aug-20 09:33N 57°09' W 002°05'0 0.0
2016-Aug-20 08:33N 57°09' W 002°05'0 0.0
2016-Aug-20 07:34N 57°09' W 002°05'0 0.0
2016-Aug-20 06:33N 57°09' W 002°05'0 0.0
2016-Aug-20 05:31N 57°09' W 002°05'0 0.0
2016-Aug-20 04:31N 57°09' W 002°05'0 0.0
2016-Aug-20 03:28N 57°09' W 002°05'0 0.0
2016-Aug-20 00:13N 57°09' W 002°05'0 0.0
2016-Aug-19 23:19N 57°09' W 002°05'0 0.0
2016-Aug-19 22:28N 57°09' W 002°05'0 0.0
2016-Aug-19 21:31N 57°09' W 002°05'0 0.0
2016-Aug-19 20:31N 57°09' W 002°05'0 0.0
2016-Aug-19 19:31N 57°09' W 002°05'0 0.5
2016-Aug-19 18:32N 57°09' W 002°05'32814.9
2016-Aug-18 20:30N 52°49' E 003°46'1414.7
2016-Aug-18 19:33N 52°39' E 004°01'1414.4
2016-Aug-18 18:33N 52°30' E 004°20'1010.0
2016-Aug-18 17:33N 52°28' E 004°36'2 2.4
2016-Aug-18 16:33N 52°28' E 004°40'0 0.0
2016-Aug-18 15:34N 52°28' E 004°40'0 0.0
2016-Aug-18 14:34N 52°28' E 004°40'0 0.0
2016-Aug-18 13:33N 52°28' E 004°40'0 0.0
2016-Aug-18 12:33N 52°28' E 004°40'0 0.0
2016-Aug-18 11:33N 52°28' E 004°40'0 0.0
2016-Aug-18 10:33N 52°28' E 004°40'0 0.0
2016-Aug-18 09:33N 52°28' E 004°40'0 0.0
2016-Aug-18 08:33N 52°28' E 004°40'0 0.0
2016-Aug-18 07:33N 52°28' E 004°40'0 0.0
2016-Aug-18 06:33N 52°28' E 004°40'3 2.7
2016-Aug-18 05:34N 52°28' E 004°35'9 8.5
2016-Aug-18 04:33N 52°29' E 004°21'10 9.8
2016-Aug-18 03:33N 52°28' E 004°05'1312.6
2016-Aug-18 02:33N 52°26' E 003°45'1514.5
2016-Aug-18 01:32N 52°32' E 003°23'1414.4
2016-Aug-18 00:32N 52°39' E 003°02'1914.4
2016-Aug-17 23:15N 52°49' E 002°37'1114.7
2016-Aug-17 22:30N 52°55' E 002°21'1515.3
2016-Aug-17 21:33N 53°03' E 002°01'1615.7
2016-Aug-17 20:34N 53°09' E 001°37'1616.0
2016-Aug-17 19:33N 53°16' E 001°13'1816.0
2016-Aug-17 18:24N 53°24' E 000°45'1415.3
2016-Aug-17 17:28N 53°29' E 000°22'1011.4
2016-Aug-17 16:33N 53°34' E 000°06'7 6.6
2016-Aug-17 15:33N 53°35' W 000°04'0 0.0
2016-Aug-17 14:32N 53°35' W 000°04'0 0.0
2016-Aug-17 13:32N 53°35' W 000°04'0 0.0
2016-Aug-17 12:32N 53°35' W 000°04'0 0.0
2016-Aug-17 11:32N 53°35' W 000°04'0 0.0
2016-Aug-17 10:32N 53°35' W 000°04'0 0.0
2016-Aug-17 09:32N 53°35' W 000°04'0 0.0
2016-Aug-17 08:32N 53°35' W 000°04'0 0.0
2016-Aug-17 07:32N 53°35' W 000°04'0 0.0
2016-Aug-17 06:31N 53°35' W 000°04'0 0.0
2016-Aug-17 05:31N 53°35' W 000°04'0 0.0
2016-Aug-17 04:28N 53°35' W 000°04'0 0.0
2016-Aug-17 03:31N 53°35' W 000°04'0 0.0
2016-Aug-17 02:31N 53°35' W 000°04'0 0.0
2016-Aug-17 01:31N 53°35' W 000°04'0 0.0
2016-Aug-17 00:31N 53°35' W 000°04'0 0.0
2016-Aug-16 23:31N 53°35' W 000°04'0 0.0
2016-Aug-16 22:31N 53°35' W 000°04'0 0.0
2016-Aug-16 21:31N 53°35' W 000°04'0 0.0
2016-Aug-16 20:31N 53°35' W 000°04'0 0.0
2016-Aug-16 19:31N 53°35' W 000°04'0 0.0
2016-Aug-16 18:31N 53°35' W 000°04'0 0.0
2016-Aug-16 17:31N 53°35' W 000°04'0 0.0
2016-Aug-16 16:31N 53°35' W 000°04'0 0.0
2016-Aug-16 15:31N 53°35' W 000°04'0 0.0
2016-Aug-16 14:31N 53°35' W 000°04'0 0.0
2016-Aug-16 13:31N 53°35' W 000°04'0 0.0
2016-Aug-16 12:31N 53°35' W 000°04'0 0.0
2016-Aug-16 11:31N 53°35' W 000°04'0 0.0
2016-Aug-16 10:31N 53°35' W 000°04'0 0.0
2016-Aug-16 09:31N 53°35' W 000°04'0 0.0
2016-Aug-16 08:31N 53°35' W 000°04'0 0.0
2016-Aug-16 07:31N 53°35' W 000°04'0 0.0
2016-Aug-16 06:31N 53°35' W 000°04'0 0.0
2016-Aug-16 04:31N 53°35' W 000°04'0 0.0
2016-Aug-16 03:28N 53°35' W 000°04'0 0.0
2016-Aug-16 02:31N 53°35' W 000°04'0 0.0
2016-Aug-16 01:34N 53°35' W 000°04'0 0.0
2016-Aug-16 00:31N 53°35' W 000°04'0 0.0
2016-Aug-15 23:34N 53°35' W 000°04'0 0.0
2016-Aug-15 22:33N 53°35' W 000°04'0 0.0
2016-Aug-15 21:34N 53°35' W 000°04'0 0.0
2016-Aug-15 20:33N 53°35' W 000°04'0 0.0
2016-Aug-15 19:30N 53°35' W 000°04'0 0.0
2016-Aug-15 18:33N 53°35' W 000°04'0 0.0
2016-Aug-15 17:33N 53°35' W 000°04'0 0.0
2016-Aug-15 16:33N 53°35' W 000°04'0 0.0
2016-Aug-15 15:33N 53°35' W 000°04'0 0.0
2016-Aug-15 14:33N 53°35' W 000°04'0 0.0
2016-Aug-15 13:27N 53°35' W 000°04'0 0.0
2016-Aug-15 12:33N 53°35' W 000°04'0 0.0
2016-Aug-15 11:33N 53°35' W 000°04'0 0.0
2016-Aug-15 10:30N 53°35' W 000°04'0 0.0
2016-Aug-15 09:33N 53°35' W 000°04'0 0.0
2016-Aug-15 08:33N 53°35' W 000°04'0 0.0
2016-Aug-15 07:33N 53°35' W 000°04'0 0.0
2016-Aug-15 06:33N 53°35' W 000°04'0 0.0
2016-Aug-15 04:33N 53°35' W 000°04'0 0.0
2016-Aug-15 03:33N 53°35' W 000°04'0 0.0
2016-Aug-15 02:33N 53°35' W 000°04'0 0.0
2016-Aug-15 01:33N 53°35' W 000°04'0 0.0
2016-Aug-15 00:21N 53°35' W 000°04'0 0.0
2016-Aug-14 23:33N 53°35' W 000°04'0 0.0
2016-Aug-14 22:30N 53°35' W 000°04'0 0.0
2016-Aug-14 21:30N 53°35' W 000°04'0 0.0
2016-Aug-14 20:33N 53°35' W 000°04'  
Track history (hours):
 
Tides and Currents Weather Stations Pressure Air Temp Water Temp Dewpoint Dewpoint Depression Visibility Wind Speed Wind Dir Waves Ship Positions

Svartfoss

Last reported at 2016-Aug-24 20:31 UTC. Time now 2016-Aug-26 01:34 UTC.
Position N 69°21' E 018°05'.

Length 80 m; draft 5.6 m.

Type: Cargo ship. MMSI: 304882000.

Date/timePositionNaut miles runAvg speedWind from/ knotsBaromVisibWave heightAir tempDewpointWater temp
2016-Aug-24 20:31N 69°21' E 018°05'8 7.9
2016-Aug-24 19:34N 69°14' E 017°58'0 0.0
2016-Aug-24 18:33N 69°14' E 017°58'0 0.0
2016-Aug-24 17:33N 69°14' E 017°58'10 9.9
2016-Aug-24 16:33N 69°07' E 017°38'268 8.6
2016-Aug-23 09:33N 65°14' E 011°55'1514.8
2016-Aug-23 08:33N 65°01' E 011°41'1413.9
2016-Aug-23 07:33N 64°52' E 011°16'1 0.9
2016-Aug-23 06:33N 64°52' E 011°14'0 0.0
2016-Aug-23 05:33N 64°52' E 011°14'0 0.0
2016-Aug-23 04:33N 64°52' E 011°14'1 1.2
2016-Aug-23 03:33N 64°51' E 011°13'5914.2
2016-Aug-22 23:23N 64°03' E 009°50'1113.5
2016-Aug-22 22:33N 63°53' E 009°43'9 9.3
2016-Aug-22 21:33N 63°44' E 009°36'0 0.0
2016-Aug-22 20:33N 63°44' E 009°36'4 4.5
2016-Aug-22 19:34N 63°40' E 009°29'1413.6
2016-Aug-22 18:33N 63°30' E 009°07'  
2016-Aug-20 09:33N 57°09' W 002°05'0 0.0
2016-Aug-20 08:33N 57°09' W 002°05'0 0.0
2016-Aug-20 07:34N 57°09' W 002°05'0 0.0
2016-Aug-20 06:33N 57°09' W 002°05'0 0.0
2016-Aug-20 05:31N 57°09' W 002°05'0 0.0
2016-Aug-20 04:31N 57°09' W 002°05'0 0.0
2016-Aug-20 03:28N 57°09' W 002°05'0 0.0
2016-Aug-20 00:13N 57°09' W 002°05'0 0.0
2016-Aug-19 23:19N 57°09' W 002°05'0 0.0
2016-Aug-19 22:28N 57°09' W 002°05'0 0.0
2016-Aug-19 21:31N 57°09' W 002°05'0 0.0
2016-Aug-19 20:31N 57°09' W 002°05'0 0.0
2016-Aug-19 19:31N 57°09' W 002°05'0 0.5
2016-Aug-19 18:32N 57°09' W 002°05'32814.9
2016-Aug-18 20:30N 52°49' E 003°46'1414.7
2016-Aug-18 19:33N 52°39' E 004°01'1414.4
2016-Aug-18 18:33N 52°30' E 004°20'1010.0
2016-Aug-18 17:33N 52°28' E 004°36'2 2.4
2016-Aug-18 16:33N 52°28' E 004°40'0 0.0
2016-Aug-18 15:34N 52°28' E 004°40'0 0.0
2016-Aug-18 14:34N 52°28' E 004°40'0 0.0
2016-Aug-18 13:33N 52°28' E 004°40'0 0.0
2016-Aug-18 12:33N 52°28' E 004°40'0 0.0
2016-Aug-18 11:33N 52°28' E 004°40'0 0.0
2016-Aug-18 10:33N 52°28' E 004°40'0 0.0
2016-Aug-18 09:33N 52°28' E 004°40'0 0.0
2016-Aug-18 08:33N 52°28' E 004°40'0 0.0
2016-Aug-18 07:33N 52°28' E 004°40'0 0.0
2016-Aug-18 06:33N 52°28' E 004°40'3 2.7
2016-Aug-18 05:34N 52°28' E 004°35'9 8.5
2016-Aug-18 04:33N 52°29' E 004°21'10 9.8
2016-Aug-18 03:33N 52°28' E 004°05'1312.6
2016-Aug-18 02:33N 52°26' E 003°45'1514.5
2016-Aug-18 01:32N 52°32' E 003°23'1414.4
2016-Aug-18 00:32N 52°39' E 003°02'1914.4
2016-Aug-17 23:15N 52°49' E 002°37'1114.7
2016-Aug-17 22:30N 52°55' E 002°21'1515.3
2016-Aug-17 21:33N 53°03' E 002°01'1615.7
2016-Aug-17 20:34N 53°09' E 001°37'1616.0
2016-Aug-17 19:33N 53°16' E 001°13'1816.0
2016-Aug-17 18:24N 53°24' E 000°45'1415.3
2016-Aug-17 17:28N 53°29' E 000°22'1011.4
2016-Aug-17 16:33N 53°34' E 000°06'7 6.6
2016-Aug-17 15:33N 53°35' W 000°04'0 0.0
2016-Aug-17 14:32N 53°35' W 000°04'0 0.0
2016-Aug-17 13:32N 53°35' W 000°04'0 0.0
2016-Aug-17 12:32N 53°35' W 000°04'0 0.0
2016-Aug-17 11:32N 53°35' W 000°04'0 0.0
2016-Aug-17 10:32N 53°35' W 000°04'0 0.0
2016-Aug-17 09:32N 53°35' W 000°04'0 0.0
2016-Aug-17 08:32N 53°35' W 000°04'0 0.0
2016-Aug-17 07:32N 53°35' W 000°04'0 0.0
2016-Aug-17 06:31N 53°35' W 000°04'0 0.0
2016-Aug-17 05:31N 53°35' W 000°04'0 0.0
2016-Aug-17 04:28N 53°35' W 000°04'0 0.0
2016-Aug-17 03:31N 53°35' W 000°04'0 0.0
2016-Aug-17 02:31N 53°35' W 000°04'0 0.0
2016-Aug-17 01:31N 53°35' W 000°04'0 0.0
2016-Aug-17 00:31N 53°35' W 000°04'0 0.0
2016-Aug-16 23:31N 53°35' W 000°04'0 0.0
2016-Aug-16 22:31N 53°35' W 000°04'0 0.0
2016-Aug-16 21:31N 53°35' W 000°04'0 0.0
2016-Aug-16 20:31N 53°35' W 000°04'0 0.0
2016-Aug-16 19:31N 53°35' W 000°04'0 0.0
2016-Aug-16 18:31N 53°35' W 000°04'0 0.0
2016-Aug-16 17:31N 53°35' W 000°04'0 0.0
2016-Aug-16 16:31N 53°35' W 000°04'0 0.0
2016-Aug-16 15:31N 53°35' W 000°04'0 0.0
2016-Aug-16 14:31N 53°35' W 000°04'0 0.0
2016-Aug-16 13:31N 53°35' W 000°04'0 0.0
2016-Aug-16 12:31N 53°35' W 000°04'0 0.0
2016-Aug-16 11:31N 53°35' W 000°04'0 0.0
2016-Aug-16 10:31N 53°35' W 000°04'0 0.0
2016-Aug-16 09:31N 53°35' W 000°04'0 0.0
2016-Aug-16 08:31N 53°35' W 000°04'0 0.0
2016-Aug-16 07:31N 53°35' W 000°04'0 0.0
2016-Aug-16 06:31N 53°35' W 000°04'0 0.0
2016-Aug-16 04:31N 53°35' W 000°04'0 0.0
2016-Aug-16 03:28N 53°35' W 000°04'0 0.0
2016-Aug-16 02:31N 53°35' W 000°04'0 0.0
2016-Aug-16 01:34N 53°35' W 000°04'0 0.0
2016-Aug-16 00:31N 53°35' W 000°04'0 0.0
2016-Aug-15 23:34N 53°35' W 000°04'0 0.0
2016-Aug-15 22:33N 53°35' W 000°04'0 0.0
2016-Aug-15 21:34N 53°35' W 000°04'0 0.0
2016-Aug-15 20:33N 53°35' W 000°04'0 0.0
2016-Aug-15 19:30N 53°35' W 000°04'0 0.0
2016-Aug-15 18:33N 53°35' W 000°04'0 0.0
2016-Aug-15 17:33N 53°35' W 000°04'0 0.0
2016-Aug-15 16:33N 53°35' W 000°04'0 0.0
2016-Aug-15 15:33N 53°35' W 000°04'0 0.0
2016-Aug-15 14:33N 53°35' W 000°04'0 0.0
2016-Aug-15 13:27N 53°35' W 000°04'0 0.0
2016-Aug-15 12:33N 53°35' W 000°04'0 0.0
2016-Aug-15 11:33N 53°35' W 000°04'0 0.0
2016-Aug-15 10:30N 53°35' W 000°04'0 0.0
2016-Aug-15 09:33N 53°35' W 000°04'0 0.0
2016-Aug-15 08:33N 53°35' W 000°04'0 0.0
2016-Aug-15 07:33N 53°35' W 000°04'0 0.0
2016-Aug-15 06:33N 53°35' W 000°04'0 0.0
2016-Aug-15 04:33N 53°35' W 000°04'0 0.0
2016-Aug-15 03:33N 53°35' W 000°04'0 0.0
2016-Aug-15 02:33N 53°35' W 000°04'0 0.0
2016-Aug-15 01:33N 53°35' W 000°04'0 0.0
2016-Aug-15 00:21N 53°35' W 000°04'0 0.0
2016-Aug-14 23:33N 53°35' W 000°04'0 0.0
2016-Aug-14 22:30N 53°35' W 000°04'0 0.0
2016-Aug-14 21:30N 53°35' W 000°04'0 0.0
2016-Aug-14 20:33N 53°35' W 000°04'  

Dump ship's entire track history